| time (UTC) | temp C | wind direction | speed KPH | gust KPH | rain 1hr cm | rain 24hr cm | rain mn cm | humidity % | barometer mb |
| 20260507095006 | 11 | 278 | 11.3 | 12.9 | 0.00 | 0.69 | 0.00 | 74 | 1018.6 |
| 20260507094506 | 11 | 278 | 11.3 | 20.9 | 0.00 | 0.69 | 0.00 | 74 | 1018.6 |
| 20260507093507 | 11 | 272 | 4.8 | 9.7 | 0.00 | 0.69 | 0.00 | 78 | 1019.0 |
| 20260507093006 | 11 | 272 | 4.8 | 9.7 | 0.00 | 0.69 | 0.00 | 78 | 1019.0 |
| 20260507091506 | 11 | 296 | 8.0 | 19.3 | 0.00 | 0.69 | 0.00 | 78 | 1018.3 |
| 20260507091006 | 11 | 303 | 12.9 | 19.3 | 0.00 | 0.69 | 0.00 | 76 | 1018.3 |
| 20260507090006 | 12 | 212 | 9.7 | 12.9 | 0.00 | 0.69 | 0.00 | 73 | 1018.3 |
| 20260507085505 | 12 | 286 | 11.3 | 12.9 | 0.00 | 0.69 | 0.00 | 72 | 1018.3 |
| 20260507085006 | 12 | 290 | 9.7 | 12.9 | 0.00 | 0.69 | 0.00 | 74 | 1018.3 |
| 20260507084506 | 12 | 290 | 9.7 | 20.9 | 0.00 | 0.69 | 0.00 | 74 | 1018.3 |
| 20260507084006 | 12 | 288 | 14.5 | 20.9 | 0.00 | 0.69 | 0.00 | 73 | 1017.9 |
| 20260507083507 | 11 | 287 | 3.2 | 4.8 | 0.00 | 0.69 | 0.00 | 75 | 1018.3 |
| 20260507083006 | 11 | 287 | 3.2 | 9.7 | 0.00 | 0.69 | 0.00 | 75 | 1018.3 |
| 20260507082505 | 12 | 318 | 8.0 | 20.9 | 0.00 | 0.69 | 0.00 | 73 | 1017.9 |
| 20260507081505 | 11 | 285 | 12.9 | 24.1 | 0.00 | 0.69 | 0.00 | 74 | 1018.3 |
| 20260507081006 | 11 | 290 | 20.9 | 24.1 | 0.00 | 0.69 | 0.00 | 73 | 1017.9 |
| 20260507080506 | 12 | 280 | 11.3 | 24.1 | 0.00 | 0.69 | 0.00 | 74 | 1017.9 |
| 20260507080006 | 12 | 276 | 11.3 | 14.5 | 0.00 | 0.69 | 0.00 | 74 | 1017.9 |
| 20260507075505 | 12 | 292 | 9.7 | 16.1 | 0.00 | 0.69 | 0.00 | 74 | 1017.9 |
| 20260507075006 | 11 | 287 | 9.7 | 16.1 | 0.00 | 0.69 | 0.00 | 75 | 1017.9 |
| 20260507074506 | 11 | 285 | 9.7 | 16.1 | 0.00 | 0.69 | 0.00 | 75 | 1017.9 |
| 20260507074006 | 11 | 261 | 4.8 | 4.8 | 0.00 | 0.69 | 0.00 | 76 | 1017.9 |
| 20260507073506 | 11 | 288 | 9.7 | 12.9 | 0.00 | 0.69 | 0.00 | 77 | 1017.9 |
| 20260507073006 | 11 | 295 | 11.3 | 12.9 | 0.00 | 0.69 | 0.00 | 77 | 1017.9 |
| 20260507072505 | 11 | 268 | 4.8 | 9.7 | 0.00 | 0.69 | 0.00 | 77 | 1017.9 |
| 20260507071505 | 11 | 296 | 12.9 | 14.5 | 0.00 | 0.69 | 0.00 | 77 | 1017.6 |
| 20260507071005 | 11 | 272 | 9.7 | 11.3 | 0.00 | 0.69 | 0.00 | 76 | 1017.6 |
| 20260507070505 | 11 | 277 | 16.1 | 25.7 | 0.00 | 0.69 | 0.00 | 76 | 1017.6 |
| 20260507070010 | 11 | 282 | 19.3 | 25.7 | 0.00 | 0.69 | 0.00 | 76 | 1017.6 |
| 20260507065506 | 11 | 272 | 12.9 | 16.1 | 0.00 | 0.69 | 0.00 | 76 | 1017.6 |
| 20260507065005 | 11 | 275 | 11.3 | 16.1 | 0.00 | 0.69 | 0.00 | 76 | 1017.5 |
| 20260507064506 | 11 | 299 | 8.0 | 22.5 | 0.00 | 0.69 | 0.00 | 77 | 1017.3 |
| 20260507063505 | 11 | 287 | 11.3 | 22.5 | 0.00 | 0.69 | 0.00 | 78 | 1017.6 |
| 20260507063006 | 11 | 286 | 3.2 | 9.7 | 0.00 | 0.69 | 0.00 | 79 | 1017.3 |
| 20260507061506 | 11 | 127 | 14.5 | 19.3 | 0.00 | 0.69 | 0.00 | 79 | 1017.3 |
| 20260507061005 | 11 | 279 | 4.8 | 8.0 | 0.00 | 0.69 | 0.00 | 81 | 1017.3 |
| 20260507060505 | 11 | 279 | 4.8 | 8.0 | 0.00 | 0.69 | 0.00 | 81 | 1017.3 |
| 20260507060006 | 10 | 303 | 0.0 | 12.9 | 0.00 | 0.69 | 0.00 | 83 | 1017.3 |
| 20260507055506 | 10 | 291 | 11.3 | 12.9 | 0.00 | 0.69 | 0.00 | 84 | 1016.9 |
| 20260507055006 | 10 | 291 | 11.3 | 14.5 | 0.00 | 0.69 | 0.00 | 84 | 1016.9 |
| 20260507054521 | 9 | 331 | 11.3 | 14.5 | 0.00 | 0.69 | 0.00 | 85 | 1017.3 |
| 20260507054005 | 9 | 303 | 1.6 | 14.5 | 0.00 | 0.69 | 0.00 | 86 | 1017.3 |
| 20260507053506 | 9 | 270 | 1.6 | 3.2 | 0.00 | 0.69 | 0.00 | 86 | 1017.3 |
| 20260507053006 | 9 | 287 | 3.2 | 4.8 | 0.00 | 0.69 | 0.00 | 87 | 1016.9 |
| 20260507052506 | 9 | 271 | 3.2 | 4.8 | 0.00 | 0.69 | 0.00 | 87 | 1016.9 |
| 20260507052005 | 9 | 269 | 3.2 | 11.3 | 0.00 | 0.69 | 0.00 | 87 | 1016.9 |
| 20260507051505 | 8 | 280 | 9.7 | 11.3 | 0.00 | 0.69 | 0.00 | 88 | 1016.9 |
| 20260507051006 | 8 | 287 | 1.6 | 11.3 | 0.00 | 0.69 | 0.00 | 90 | 1016.6 |
| 20260507050006 | 8 | 296 | 0.0 | 0.0 | 0.00 | 0.69 | 0.00 | 93 | 1016.6 |
| 20260507045505 | 8 | 293 | 0.0 | 0.0 | 0.00 | 0.69 | 0.00 | 94 | 1016.6 |
| 20260507045005 | 8 | 293 | 0.0 | 0.0 | 0.00 | 0.69 | 0.00 | 94 | 1016.6 |
| 20260507044505 | 8 | 277 | 0.0 | 0.0 | 0.00 | 0.69 | 0.00 | 94 | 1016.6 |
| 20260507044006 | 8 | 277 | 0.0 | 0.0 | 0.00 | 0.69 | 0.00 | 94 | 1016.3 |
| 20260507043505 | 8 | 277 | 0.0 | 0.0 | 0.00 | 0.69 | 0.00 | 94 | 1016.3 |
| 20260507043005 | 8 | 277 | 0.0 | 1.6 | 0.00 | 0.69 | 0.00 | 93 | 1016.6 |
| 20260507042005 | 7 | 277 | 1.6 | 1.6 | 0.00 | 0.69 | 0.00 | 94 | 1016.3 |
| 20260507041005 | 8 | 279 | 0.0 | 0.0 | 0.00 | 0.69 | 0.00 | 93 | 1015.9 |
| 20260507040005 | 8 | 279 | 0.0 | 0.0 | 0.00 | 0.69 | 0.00 | 92 | 1016.3 |
| 20260507035505 | 8 | 279 | 0.0 | 0.0 | 0.00 | 0.69 | 0.00 | 92 | 1016.3 |
| 20260507035005 | 8 | 279 | 0.0 | 0.0 | 0.00 | 0.69 | 0.00 | 92 | 1015.6 |
| 20260507034505 | 8 | 279 | 1.6 | 1.6 | 0.00 | 0.69 | 0.00 | 92 | 1015.7 |
| 20260507033505 | 8 | 279 | 0.0 | 0.0 | 0.00 | 0.69 | 0.00 | 92 | 1015.9 |
| 20260507033005 | 7 | 279 | 0.0 | 0.0 | 0.00 | 0.69 | 0.00 | 92 | 1015.9 |
| 20260507032505 | 8 | 278 | 0.0 | 0.0 | 0.00 | 0.69 | 0.00 | 92 | 1015.9 |
| 20260507032005 | 8 | 279 | 0.0 | 0.0 | 0.00 | 0.69 | 0.00 | 91 | 1016.1 |
| 20260507031005 | 8 | 284 | 1.6 | 3.2 | 0.00 | 0.69 | 0.00 | 89 | 1016.3 |
| 20260507030506 | 8 | 293 | 3.2 | 4.8 | 0.00 | 0.69 | 0.00 | 89 | 1016.3 |
| 20260507030005 | 8 | 296 | 3.2 | 4.8 | 0.00 | 0.69 | 0.00 | 89 | 1016.3 |
| 20260507025005 | 8 | 281 | 0.0 | 1.6 | 0.00 | 0.69 | 0.00 | 89 | 1015.9 |
| 20260507024505 | 8 | 282 | 0.0 | 3.2 | 0.00 | 0.69 | 0.00 | 89 | 1015.9 |
| 20260507024005 | 8 | 270 | 3.2 | 8.0 | 0.00 | 0.69 | 0.00 | 88 | 1015.9 |
| 20260507023505 | 8 | 259 | 3.2 | 8.0 | 0.00 | 0.69 | 0.00 | 88 | 1015.9 |
| 20260507023005 | 8 | 277 | 4.8 | 8.0 | 0.00 | 0.69 | 0.00 | 88 | 1015.9 |
| 20260507022506 | 8 | 278 | 4.8 | 8.0 | 0.00 | 0.69 | 0.00 | 88 | 1015.9 |
| 20260507022005 | 8 | 276 | 1.6 | 4.8 | 0.00 | 0.69 | 0.00 | 88 | 1015.9 |
| 20260507021505 | 8 | 279 | 3.2 | 4.8 | 0.00 | 0.69 | 0.00 | 87 | 1016.3 |
| 20260507021005 | 8 | 253 | 3.2 | 4.8 | 0.00 | 0.69 | 0.00 | 87 | 1015.6 |
| 20260507020505 | 8 | 282 | 1.6 | 3.2 | 0.00 | 0.69 | 0.00 | 87 | 1015.9 |
| 20260507020005 | 8 | 291 | 6.4 | 11.3 | 0.00 | 0.69 | 0.00 | 87 | 1015.8 |
| 20260507015505 | 8 | 296 | 9.7 | 11.3 | 0.00 | 0.69 | 0.00 | 87 | 1015.6 |
| 20260507015005 | 8 | 282 | 4.8 | 4.8 | 0.00 | 0.69 | 0.00 | 87 | 1015.6 |
| 20260507014505 | 8 | 292 | 3.2 | 4.8 | 0.00 | 0.69 | 0.00 | 87 | 1015.6 |
| 20260507013520 | 8 | 289 | 3.2 | 4.8 | 0.00 | 0.69 | 0.00 | 87 | 1015.6 |
| 20260507013005 | 8 | 290 | 3.2 | 9.7 | 0.00 | 0.69 | 0.00 | 88 | 1015.6 |
| 20260507012505 | 8 | 300 | 4.8 | 9.7 | 0.00 | 0.69 | 0.00 | 88 | 1015.6 |
| 20260507012005 | 8 | 287 | 1.6 | 9.7 | 0.00 | 0.69 | 0.00 | 88 | 1015.6 |
| 20260507011505 | 8 | 279 | 9.7 | 9.7 | 0.00 | 0.69 | 0.00 | 88 | 1015.6 |
| 20260507011005 | 8 | 282 | 3.2 | 9.7 | 0.00 | 0.69 | 0.00 | 88 | 1015.6 |
| 20260507010505 | 8 | 289 | 1.6 | 4.8 | 0.00 | 0.69 | 0.00 | 88 | 1015.6 |
| 20260507010005 | 8 | 303 | 3.2 | 8.0 | 0.00 | 0.69 | 0.00 | 88 | 1015.6 |
| 20260507005505 | 8 | 278 | 4.8 | 8.0 | 0.00 | 0.69 | 0.00 | 88 | 1015.6 |
| 20260507004504 | 8 | 294 | 0.0 | 8.0 | 0.00 | 0.69 | 0.00 | 89 | 1015.6 |
| 20260507003505 | 8 | 221 | 1.6 | 4.8 | 0.00 | 0.69 | 0.00 | 88 | 1015.6 |
| 20260507002505 | 8 | 282 | 1.6 | 3.2 | 0.00 | 0.69 | 0.00 | 89 | 1015.6 |
| 20260507002005 | 8 | 292 | 0.0 | 0.0 | 0.00 | 0.69 | 0.00 | 88 | 1015.6 |
| 20260507001504 | 8 | 292 | 0.0 | 1.6 | 0.00 | 0.69 | 0.00 | 88 | 1015.6 |
| 20260507000505 | 8 | 267 | 0.0 | 0.0 | 0.00 | 0.69 | 0.00 | 88 | 1015.6 |
| 20260507000005 | 9 | 216 | 0.0 | 4.8 | 0.00 | 0.69 | 0.00 | 88 | 1015.9 |
| 20260506235504 | 9 | 263 | 1.6 | 4.8 | 0.00 | 0.69 | 0.00 | 88 | 1015.9 |
| 20260506235005 | 9 | 275 | 3.2 | 4.8 | 0.00 | 0.69 | 0.00 | 88 | 1015.9 |
| 20260506234505 | 9 | 280 | 4.8 | 11.3 | 0.00 | 0.69 | 0.00 | 88 | 1015.9 |
| 20260506234005 | 9 | 301 | 8.0 | 11.3 | 0.00 | 0.69 | 0.00 | 88 | 1015.6 |
| 20260506233505 | 9 | 281 | 3.2 | 4.8 | 0.00 | 0.69 | 0.00 | 88 | 1015.6 |
| 20260506232505 | 9 | 285 | 4.8 | 8.0 | 0.00 | 0.69 | 0.00 | 88 | 1015.6 |
| 20260506232005 | 9 | 285 | 4.8 | 8.0 | 0.00 | 0.69 | 0.00 | 88 | 1015.6 |
| 20260506231505 | 9 | 277 | 4.8 | 4.8 | 0.00 | 0.69 | 0.00 | 88 | 1015.6 |
| 20260506230505 | 9 | 315 | 3.2 | 4.8 | 0.00 | 0.69 | 0.00 | 87 | 1015.6 |
| 20260506230005 | 9 | 282 | 3.2 | 4.8 | 0.00 | 0.69 | 0.00 | 87 | 1015.6 |
| 20260506225504 | 9 | 282 | 3.2 | 4.8 | 0.00 | 0.69 | 0.00 | 87 | 1015.6 |
| 20260506225004 | 9 | 253 | 1.6 | 9.7 | 0.00 | 0.69 | 0.00 | 87 | 1015.6 |
| 20260506224505 | 9 | 285 | 8.0 | 12.9 | 0.00 | 0.69 | 0.00 | 87 | 1015.6 |
| 20260506224005 | 9 | 298 | 8.0 | 12.9 | 0.00 | 0.69 | 0.00 | 86 | 1015.6 |
| 20260506223520 | 9 | 277 | 4.8 | 12.9 | 0.00 | 0.69 | 0.00 | 86 | 1015.6 |
| 20260506223004 | 9 | 275 | 8.0 | 16.1 | 0.00 | 0.69 | 0.00 | 86 | 1015.6 |
| 20260506221505 | 9 | 280 | 8.0 | 9.7 | 0.00 | 0.69 | 0.00 | 87 | 1015.2 |
| 20260506221004 | 9 | 92 | 4.8 | 8.0 | 0.00 | 0.69 | 0.00 | 88 | 1015.6 |
| 20260506220505 | 9 | 211 | 3.2 | 8.0 | 0.00 | 0.69 | 0.00 | 88 | 1015.3 |
| 20260506220005 | 9 | 237 | 3.2 | 4.8 | 0.00 | 0.69 | 0.00 | 88 | 1015.2 |
| 20260506215504 | 9 | 271 | 1.6 | 3.2 | 0.00 | 0.69 | 0.69 | 88 | 1015.2 |
| 20260506215006 | 9 | 264 | 1.6 | 3.2 | 0.00 | 0.69 | 0.69 | 88 | 1014.9 |
| 20260506214505 | 9 | 253 | 1.6 | 3.2 | 0.00 | 0.69 | 0.69 | 88 | 1014.9 |
| 20260506214005 | 9 | 290 | 1.6 | 3.2 | 0.00 | 0.69 | 0.69 | 88 | 1015.2 |
| 20260506213505 | 9 | 291 | 3.2 | 4.8 | 0.00 | 0.69 | 0.69 | 88 | 1015.2 |
| 20260506213005 | 9 | 292 | 3.2 | 12.9 | 0.00 | 0.69 | 0.69 | 87 | 1015.2 |
| 20260506212005 | 10 | 317 | 3.2 | 9.7 | 0.00 | 0.69 | 0.69 | 86 | 1014.9 |
| 20260506211505 | 9 | 267 | 4.8 | 9.7 | 0.00 | 0.69 | 0.69 | 87 | 1014.9 |
| 20260506211005 | 9 | 282 | 8.0 | 12.9 | 0.00 | 0.69 | 0.69 | 87 | 1015.0 |
| 20260506210005 | 9 | 305 | 4.8 | 9.7 | 0.00 | 0.79 | 0.69 | 90 | 1015.2 |
| 20260506205505 | 9 | 295 | 3.2 | 12.9 | 0.00 | 0.79 | 0.69 | 90 | 1014.9 |
| 20260506205005 | 9 | 284 | 9.7 | 12.9 | 0.00 | 0.86 | 0.69 | 91 | 1014.9 |
| 20260506204505 | 9 | 283 | 4.8 | 12.9 | 0.00 | 0.86 | 0.69 | 90 | 1014.9 |
| 20260506204005 | 9 | 280 | 4.8 | 8.0 | 0.00 | 0.94 | 0.69 | 90 | 1014.9 |
| 20260506203005 | 9 | 291 | 3.2 | 3.2 | 0.00 | 0.99 | 0.69 | 90 | 1014.9 |
| 20260506202505 | 9 | 254 | 1.6 | 3.2 | 0.00 | 1.02 | 0.69 | 90 | 1014.9 |
| 20260506202005 | 9 | 279 | 0.0 | 3.2 | 0.00 | 1.09 | 0.69 | 90 | 1014.6 |
| 20260506201505 | 9 | 297 | 1.6 | 3.2 | 0.00 | 1.09 | 0.69 | 90 | 1014.6 |
| 20260506201005 | 9 | 254 | 1.6 | 3.2 | 0.00 | 1.12 | 0.69 | 90 | 1014.6 |
| 20260506200505 | 9 | 275 | 0.0 | 0.0 | 0.00 | 1.12 | 0.69 | 89 | 1014.6 |
| 20260506200005 | 10 | 298 | 0.0 | 4.8 | 0.00 | 1.12 | 0.69 | 89 | 1014.6 |
| 20260506195505 | 10 | 291 | 4.8 | 4.8 | 0.00 | 1.12 | 0.69 | 88 | 1014.2 |
| 20260506195005 | 10 | 291 | 3.2 | 4.8 | 0.00 | 1.12 | 0.69 | 88 | 1014.2 |
| 20260506194505 | 10 | 281 | 0.0 | 8.0 | 0.00 | 1.12 | 0.69 | 88 | 1014.6 |
| 20260506194005 | 10 | 308 | 4.8 | 8.0 | 0.00 | 1.12 | 0.69 | 88 | 1014.6 |
| 20260506193505 | 10 | 289 | 4.8 | 8.0 | 0.00 | 1.12 | 0.69 | 88 | 1014.2 |
| 20260506193005 | 10 | 284 | 0.0 | 1.6 | 0.00 | 1.12 | 0.69 | 88 | 1014.6 |
| 20260506192005 | 10 | 294 | 11.3 | 14.5 | 0.00 | 1.12 | 0.69 | 88 | 1014.2 |
| 20260506191505 | 10 | 301 | 4.8 | 11.3 | 0.00 | 1.12 | 0.69 | 87 | 1014.6 |
| 20260506191005 | 10 | 278 | 4.8 | 19.3 | 0.00 | 1.14 | 0.69 | 86 | 1014.6 |
| 20260506190505 | 10 | 284 | 14.5 | 19.3 | 0.00 | 1.14 | 0.69 | 86 | 1014.2 |
| 20260506190005 | 10 | 280 | 11.3 | 19.3 | 0.00 | 1.14 | 0.69 | 86 | 1014.1 |
| 20260506185504 | 10 | 275 | 9.7 | 12.9 | 0.00 | 1.14 | 0.69 | 87 | 1013.9 |
| 20260506185005 | 10 | 288 | 8.0 | 11.3 | 0.00 | 1.14 | 0.69 | 88 | 1013.9 |
| 20260506184005 | 10 | 285 | 8.0 | 9.7 | 0.00 | 1.14 | 0.69 | 87 | 1013.5 |
| 20260506183005 | 10 | 290 | 9.7 | 12.9 | 0.00 | 1.14 | 0.69 | 87 | 1013.2 |
| 20260506182505 | 10 | 295 | 8.0 | 11.3 | 0.00 | 1.14 | 0.69 | 87 | 1013.2 |
| 20260506182007 | 10 | 298 | 8.0 | 11.3 | 0.00 | 1.14 | 0.69 | 87 | 1013.2 |
| 20260506181505 | 10 | 298 | 8.0 | 16.1 | 0.00 | 1.14 | 0.69 | 87 | 1013.2 |
| 20260506181006 | 10 | 290 | 12.9 | 16.1 | 0.00 | 1.14 | 0.69 | 86 | 1013.2 |
| 20260506180506 | 10 | 316 | 6.4 | 16.1 | 0.00 | 1.14 | 0.69 | 87 | 1012.9 |
| 20260506180006 | 10 | 318 | 4.8 | 11.3 | 0.00 | 1.14 | 0.69 | 87 | 1012.9 |
| 20260506175505 | 10 | 260 | 9.7 | 19.3 | 0.00 | 1.14 | 0.69 | 86 | 1012.9 |
| 20260506175005 | 10 | 279 | 12.9 | 19.3 | 0.00 | 1.14 | 0.69 | 87 | 1012.9 |
| 20260506174505 | 10 | 280 | 12.9 | 19.3 | 0.00 | 1.14 | 0.69 | 87 | 1012.9 |
| 20260506174005 | 10 | 267 | 4.8 | 14.5 | 0.00 | 1.14 | 0.69 | 88 | 1012.5 |
| 20260506173505 | 10 | 291 | 9.7 | 14.5 | 0.00 | 1.14 | 0.69 | 88 | 1012.5 |
| 20260506173005 | 10 | 292 | 9.7 | 14.5 | 0.00 | 1.14 | 0.69 | 88 | 1012.5 |
| 20260506171505 | 11 | 308 | 12.9 | 19.3 | 0.00 | 1.14 | 0.69 | 89 | 1012.5 |
| 20260506171005 | 11 | 278 | 11.3 | 19.3 | 0.00 | 1.14 | 0.69 | 90 | 1012.2 |
| 20260506170506 | 12 | 286 | 14.5 | 19.3 | 0.00 | 1.14 | 0.69 | 95 | 1011.9 |
| 20260506170005 | 12 | 286 | 14.5 | 19.3 | 0.00 | 1.14 | 0.69 | 95 | 1011.9 |
| 20260506165505 | 13 | 298 | 4.8 | 4.8 | 0.00 | 1.14 | 0.69 | 96 | 1011.5 |
| 20260506165005 | 12 | 314 | 0.0 | 4.8 | 0.00 | 1.14 | 0.69 | 96 | 1011.2 |
| 20260506164505 | 12 | 340 | 0.0 | 3.2 | 0.00 | 1.14 | 0.69 | 96 | 1011.2 |
| 20260506164005 | 13 | 258 | 1.6 | 3.2 | 0.00 | 1.14 | 0.69 | 96 | 1011.2 |
| 20260506163505 | 12 | 286 | 1.6 | 3.2 | 0.00 | 1.14 | 0.69 | 96 | 1011.2 |
| 20260506163005 | 12 | 293 | 1.6 | 3.2 | 0.00 | 1.14 | 0.69 | 96 | 1011.2 |
| 20260506162505 | 12 | 204 | 0.0 | 0.0 | 0.00 | 1.14 | 0.69 | 96 | 1010.8 |
| 20260506161506 | 12 | 293 | 0.0 | 0.0 | 0.00 | 1.14 | 0.69 | 96 | 1010.8 |
| 20260506161006 | 12 | 107 | 0.0 | 0.0 | 0.03 | 1.14 | 0.69 | 96 | 1011.2 |
| 20260506160505 | 12 | 118 | 0.0 | 0.0 | 0.03 | 1.14 | 0.69 | 95 | 1011.2 |
| 20260506160005 | 12 | 120 | 0.0 | 0.0 | 0.08 | 1.14 | 0.69 | 95 | 1011.2 |
| 20260506155505 | 12 | 266 | 0.0 | 0.0 | 0.13 | 1.14 | 0.69 | 96 | 1010.5 |
| 20260506155005 | 12 | 138 | 0.0 | 0.0 | 0.13 | 1.14 | 0.69 | 96 | 1010.5 |
| 20260506154505 | 12 | 132 | 0.0 | 0.0 | 0.41 | 1.14 | 0.69 | 96 | 1010.5 |
| 20260506154005 | 12 | 291 | 0.0 | 0.0 | 0.61 | 1.14 | 0.69 | 96 | 1010.5 |
| 20260506153505 | 12 | 268 | 0.0 | 0.0 | 0.61 | 1.14 | 0.69 | 96 | 1010.8 |
| 20260506153005 | 12 | 266 | 0.0 | 0.0 | 0.69 | 1.14 | 0.69 | 96 | 1010.8 |
| 20260506152504 | 12 | 11 | 0.0 | 0.0 | 0.69 | 1.14 | 0.69 | 96 | 1010.5 |
| 20260506152006 | 11 | 297 | 0.0 | 0.0 | 0.69 | 1.14 | 0.69 | 96 | 1011.1 |
| 20260506151505 | 11 | 293 | 0.0 | 3.2 | 0.69 | 1.14 | 0.69 | 96 | 1011.2 |
| 20260506151005 | 11 | 290 | 1.6 | 3.2 | 0.66 | 1.12 | 0.66 | 95 | 1011.5 |
| 20260506150006 | 11 | 273 | 1.6 | 4.8 | 0.61 | 1.07 | 0.61 | 95 | 1011.2 |
| 20260506145506 | 11 | 315 | 3.2 | 32.2 | 0.56 | 1.02 | 0.56 | 94 | 1011.9 |
| 20260506145005 | 12 | 283 | 19.3 | 32.2 | 0.56 | 1.02 | 0.56 | 92 | 1011.6 |
| 20260506144505 | 12 | 282 | 20.9 | 32.2 | 0.28 | 0.74 | 0.28 | 92 | 1011.5 |
| 20260506144005 | 13 | 210 | 12.9 | 25.7 | 0.08 | 0.53 | 0.08 | 84 | 1011.2 |
| 20260506143504 | 16 | 264 | 9.7 | 25.7 | 0.08 | 0.53 | 0.08 | 70 | 1010.6 |
| 20260506143005 | 16 | 277 | 9.7 | 12.9 | 0.00 | 0.46 | 0.00 | 70 | 1010.5 |
| 20260506142504 | 17 | 85 | 3.2 | 4.8 | 0.00 | 0.46 | 0.00 | 67 | 1009.5 |
| 20260506142005 | 17 | 255 | 3.2 | 4.8 | 0.00 | 0.46 | 0.00 | 66 | 1009.5 |
| 20260506140005 | 18 | 287 | 8.0 | 11.3 | 0.00 | 0.46 | 0.00 | 63 | 1009.5 |
| 20260506135505 | 18 | 110 | 0.0 | 0.0 | 0.00 | 0.46 | 0.00 | 63 | 1009.5 |
| 20260506135005 | 18 | 204 | 0.0 | 0.0 | 0.00 | 0.46 | 0.00 | 64 | 1009.7 |
| 20260506134505 | 18 | 254 | 0.0 | 0.0 | 0.00 | 0.46 | 0.00 | 64 | 1009.8 |
| 20260506134005 | 20 | 88 | 0.0 | 0.0 | 0.00 | 0.46 | 0.00 | 61 | 1009.5 |
| 20260506133505 | 20 | 42 | 3.2 | 4.8 | 0.00 | 0.46 | 0.00 | 61 | 1009.6 |
| 20260506133005 | 20 | 356 | 4.8 | 4.8 | 0.00 | 0.46 | 0.00 | 60 | 1009.8 |
| 20260506132505 | 19 | 38 | 1.6 | 3.2 | 0.00 | 0.46 | 0.00 | 61 | 1009.5 |
| 20260506132005 | 19 | 43 | 1.6 | 4.8 | 0.00 | 0.46 | 0.00 | 61 | 1009.5 |
| 20260506131504 | 18 | 74 | 1.6 | 8.0 | 0.00 | 0.46 | 0.00 | 62 | 1009.5 |
| 20260506131005 | 19 | 304 | 4.8 | 8.0 | 0.00 | 0.46 | 0.00 | 61 | 1009.8 |
| 20260506130006 | 19 | 129 | 0.0 | 3.2 | 0.00 | 0.46 | 0.00 | 61 | 1009.8 |
| 20260506125504 | 19 | 85 | 1.6 | 3.2 | 0.00 | 0.46 | 0.00 | 61 | 1009.8 |
| 20260506125005 | 19 | 86 | 1.6 | 3.2 | 0.00 | 0.46 | 0.00 | 61 | 1009.8 |
| 20260506124505 | 19 | 122 | 1.6 | 1.6 | 0.00 | 0.46 | 0.00 | 61 | 1009.8 |
| 20260506124005 | 18 | 258 | 0.0 | 1.6 | 0.00 | 0.46 | 0.00 | 63 | 1010.2 |
| 20260506123505 | 18 | 258 | 0.0 | 1.6 | 0.00 | 0.46 | 0.00 | 63 | 1010.2 |
| 20260506123005 | 19 | 219 | 0.0 | 1.6 | 0.00 | 0.46 | 0.00 | 61 | 1010.2 |
| 20260506122505 | 19 | 271 | 1.6 | 1.6 | 0.00 | 0.46 | 0.00 | 60 | 1010.2 |
| 20260506122005 | 19 | 271 | 1.6 | 1.6 | 0.00 | 0.46 | 0.00 | 60 | 1010.2 |
| 20260506121005 | 18 | 143 | 0.0 | 0.0 | 0.00 | 0.46 | 0.00 | 64 | 1010.5 |
| 20260506120504 | 18 | 143 | 1.6 | 8.0 | 0.00 | 0.46 | 0.00 | 64 | 1010.5 |
| 20260506120005 | 18 | 99 | 3.2 | 8.0 | 0.00 | 0.46 | 0.00 | 63 | 1010.5 |
| 20260506115505 | 17 | 109 | 0.0 | 1.6 | 0.00 | 0.46 | 0.00 | 63 | 1010.5 |
| 20260506114005 | 17 | 167 | 4.8 | 9.7 | 0.00 | 0.46 | 0.00 | 62 | 1010.8 |
| 20260506113505 | 17 | 167 | 4.8 | 9.7 | 0.00 | 0.46 | 0.00 | 62 | 1010.8 |
| 20260506113005 | 17 | 133 | 1.6 | 3.2 | 0.00 | 0.46 | 0.00 | 63 | 1010.5 |
| 20260506112505 | 17 | 137 | 1.6 | 3.2 | 0.00 | 0.46 | 0.00 | 63 | 1010.8 |
| 20260506112005 | 17 | 137 | 1.6 | 4.8 | 0.00 | 0.46 | 0.00 | 63 | 1010.8 |
| 20260506111505 | 17 | 116 | 1.6 | 4.8 | 0.00 | 0.46 | 0.00 | 62 | 1010.8 |
| 20260506111005 | 18 | 132 | 3.2 | 4.8 | 0.00 | 0.46 | 0.00 | 62 | 1011.2 |
| 20260506110505 | 18 | 133 | 3.2 | 4.8 | 0.00 | 0.46 | 0.00 | 62 | 1011.2 |
| 20260506110005 | 18 | 248 | 1.6 | 1.6 | 0.00 | 0.46 | 0.00 | 63 | 1011.2 |
| 20260506105505 | 18 | 276 | 0.0 | 1.6 | 0.00 | 0.46 | 0.00 | 62 | 1011.2 |
| 20260506105005 | 18 | 292 | 0.0 | 1.6 | 0.00 | 0.46 | 0.00 | 61 | 1011.2 |
| 20260506103505 | 17 | 97 | 0.0 | 3.2 | 0.00 | 0.46 | 0.00 | 61 | 1011.5 |
| 20260506103005 | 17 | 129 | 0.0 | 1.6 | 0.00 | 0.46 | 0.00 | 66 | 1011.2 |
| 20260506102505 | 17 | 110 | 0.0 | 1.6 | 0.00 | 0.46 | 0.00 | 65 | 1011.3 |
| 20260506102004 | 17 | 104 | 0.0 | 1.6 | 0.00 | 0.46 | 0.00 | 64 | 1011.5 |
| 20260506100006 | 17 | 128 | 0.0 | 0.0 | 0.00 | 0.46 | 0.00 | 64 | 1011.5 |
| 20260506095505 | 17 | 126 | 3.2 | 4.8 | 0.00 | 0.46 | 0.00 | 64 | 1011.7 |